sensor_id;sensor_type;location;lat;lon;timestamp;pressure;altitude;pressure_sealevel;temperature;humidity
63111;BME280;49201;53.426;10.300;2022-09-09T00:02:26;100887.09;;;14.50;100.00
63111;BME280;49201;53.426;10.300;2022-09-09T00:04:57;100881.09;;;14.52;100.00
63111;BME280;49201;53.426;10.300;2022-09-09T00:10:26;100875.94;;;14.54;100.00
63111;BME280;49201;53.426;10.300;2022-09-09T00:13:19;100887.09;;;14.56;100.00
63111;BME280;49201;53.426;10.300;2022-09-09T00:21:15;100870.78;;;14.52;100.00
63111;BME280;49201;53.426;10.300;2022-09-09T00:23:48;100873.34;;;14.55;100.00
63111;BME280;49201;53.426;10.300;2022-09-09T00:26:30;100869.06;;;14.56;100.00
63111;BME280;49201;53.426;10.300;2022-09-09T00:31:37;100872.50;;;14.53;100.00
63111;BME280;49201;53.426;10.300;2022-09-09T00:34:19;100869.94;;;14.55;100.00
63111;BME280;49201;53.426;10.300;2022-09-09T00:36:48;100872.47;;;14.50;100.00
63111;BME280;49201;53.426;10.300;2022-09-09T00:39:47;100877.59;;;14.49;100.00
63111;BME280;49201;53.426;10.300;2022-09-09T00:42:24;100870.75;;;14.48;100.00
63111;BME280;49201;53.426;10.300;2022-09-09T00:44:56;100877.59;;;14.41;100.00
63111;BME280;49201;53.426;10.300;2022-09-09T00:47:35;100871.56;;;14.39;100.00
63111;BME280;49201;53.426;10.300;2022-09-09T00:52:50;100868.97;;;14.36;100.00
63111;BME280;49201;53.426;10.300;2022-09-09T00:58:27;100868.97;;;14.36;100.00
63111;BME280;49201;53.426;10.300;2022-09-09T01:01:12;100865.53;;;14.34;100.00
63111;BME280;49201;53.426;10.300;2022-09-09T01:03:52;100868.97;;;14.36;100.00
63111;BME280;49201;53.426;10.300;2022-09-09T01:06:34;100872.41;;;14.34;100.00
63111;BME280;49201;53.426;10.300;2022-09-09T01:11:55;100874.97;;;14.31;100.00
63111;BME280;49201;53.426;10.300;2022-09-09T01:14:41;100868.94;;;14.27;100.00
63111;BME280;49201;53.426;10.300;2022-09-09T01:17:14;100868.91;;;14.23;100.00
63111;BME280;49201;53.426;10.300;2022-09-09T01:22:35;100864.63;;;14.20;100.00
63111;BME280;49201;53.426;10.300;2022-09-09T01:25:56;100858.53;;;14.18;100.00
63111;BME280;49201;53.426;10.300;2022-09-09T01:28:22;100865.41;;;14.16;100.00
63111;BME280;49201;53.426;10.300;2022-09-09T01:30:52;100861.09;;;14.17;100.00
63111;BME280;49201;53.426;10.300;2022-09-09T01:33:22;100866.25;;;14.14;100.00
63111;BME280;49201;53.426;10.300;2022-09-09T01:35:54;100858.53;;;14.12;100.00
63111;BME280;49201;53.426;10.300;2022-09-09T01:38:23;100858.50;;;14.11;100.00
63111;BME280;49201;53.426;10.300;2022-09-09T01:40:51;100864.47;;;14.05;100.00
63111;BME280;49201;53.426;10.300;2022-09-09T01:43:21;100861.91;;;14.07;100.00
63111;BME280;49201;53.426;10.300;2022-09-09T01:45:49;100861.91;;;14.05;100.00
63111;BME280;49201;53.426;10.300;2022-09-09T01:48:17;100856.75;;;14.05;100.00
63111;BME280;49201;53.426;10.300;2022-09-09T01:50:50;100851.63;;;14.04;100.00
63111;BME280;49201;53.426;10.300;2022-09-09T01:53:17;100856.75;;;14.02;100.00
63111;BME280;49201;53.426;10.300;2022-09-09T02:01:43;100859.31;;;14.01;100.00
63111;BME280;49201;53.426;10.300;2022-09-09T02:04:41;100868.75;;;13.97;100.00
63111;BME280;49201;53.426;10.300;2022-09-09T02:10:19;100867.84;;;13.94;100.00
63111;BME280;49201;53.426;10.300;2022-09-09T02:13:00;100862.69;;;13.94;100.00
63111;BME280;49201;53.426;10.300;2022-09-09T02:15:35;100872.09;;;13.89;100.00
63111;BME280;49201;53.426;10.300;2022-09-09T02:18:07;100873.81;;;13.85;100.00
63111;BME280;49201;53.426;10.300;2022-09-09T02:20:37;100868.66;;;13.84;100.00
63111;BME280;49201;53.426;10.300;2022-09-09T02:23:04;100867.78;;;13.82;100.00
63111;BME280;49201;53.426;10.300;2022-09-09T02:25:30;100865.25;;;13.85;100.00
63111;BME280;49201;53.426;10.300;2022-09-09T02:28:07;100855.78;;;13.81;100.00
63111;BME280;49201;53.426;10.300;2022-09-09T02:30:36;100855.78;;;13.81;100.00
63111;BME280;49201;53.426;10.300;2022-09-09T02:33:04;100855.75;;;13.79;100.00
63111;BME280;49201;53.426;10.300;2022-09-09T02:35:47;100860.91;;;13.79;100.00
63111;BME280;49201;53.426;10.300;2022-09-09T02:38:19;100860.03;;;13.79;100.00
63111;BME280;49201;53.426;10.300;2022-09-09T02:41:16;100857.44;;;13.74;100.00
63111;BME280;49201;53.426;10.300;2022-09-09T02:43:42;100864.28;;;13.72;100.00
63111;BME280;49201;53.426;10.300;2022-09-09T02:46:27;100859.13;;;13.69;100.00
63111;BME280;49201;53.426;10.300;2022-09-09T02:49:03;100860.84;;;13.70;100.00
63111;BME280;49201;53.426;10.300;2022-09-09T02:51:56;100863.41;;;13.69;100.00
63111;BME280;49201;53.426;10.300;2022-09-09T02:54:29;100859.09;;;13.66;100.00
63111;BME280;49201;53.426;10.300;2022-09-09T02:57:08;100865.09;;;13.64;100.00
63111;BME280;49201;53.426;10.300;2022-09-09T02:59:38;100859.03;;;13.59;100.00
63111;BME280;49201;53.426;10.300;2022-09-09T03:02:04;100858.16;;;13.58;100.00
63111;BME280;49201;53.426;10.300;2022-09-09T03:04:30;100859.03;;;13.59;100.00
63111;BME280;49201;53.426;10.300;2022-09-09T03:06:58;100859.88;;;13.56;100.00
63111;BME280;49201;53.426;10.300;2022-09-09T03:09:23;100857.25;;;13.52;100.00
63111;BME280;49201;53.426;10.300;2022-09-09T03:11:49;100859.84;;;13.50;100.00
63111;BME280;49201;53.426;10.300;2022-09-09T03:14:16;100867.56;;;13.50;100.00
63111;BME280;49201;53.426;10.300;2022-09-09T03:16:42;100868.41;;;13.51;100.00
63111;BME280;49201;53.426;10.300;2022-09-09T03:19:11;100860.66;;;13.46;100.00
63111;BME280;49201;53.426;10.300;2022-09-09T03:21:36;100861.50;;;13.47;100.00
63111;BME280;49201;53.426;10.300;2022-09-09T03:24:02;100863.22;;;13.45;100.00
63111;BME280;49201;53.426;10.300;2022-09-09T03:26:29;100867.47;;;13.43;100.00
63111;BME280;49201;53.426;10.300;2022-09-09T03:28:56;100862.31;;;13.40;100.00
63111;BME280;49201;53.426;10.300;2022-09-09T03:31:22;100856.31;;;13.41;100.00
63111;BME280;49201;53.426;10.300;2022-09-09T03:33:49;100856.31;;;13.39;100.00
63111;BME280;49201;53.426;10.300;2022-09-09T03:36:16;100871.72;;;13.35;100.00
63111;BME280;49201;53.426;10.300;2022-09-09T03:38:42;100873.41;;;13.34;100.00
63111;BME280;49201;53.426;10.300;2022-09-09T03:41:08;100864.84;;;13.35;100.00
63111;BME280;49201;53.426;10.300;2022-09-09T03:43:34;100873.44;;;13.37;100.00
63111;BME280;49201;53.426;10.300;2022-09-09T03:46:00;100869.09;;;13.32;100.00
63111;BME280;49201;53.426;10.300;2022-09-09T03:48:27;100871.69;;;13.32;100.00
63111;BME280;49201;53.426;10.300;2022-09-09T03:50:54;100872.56;;;13.32;100.00
63111;BME280;49201;53.426;10.300;2022-09-09T03:53:22;100871.69;;;13.33;100.00
63111;BME280;49201;53.426;10.300;2022-09-09T03:55:51;100872.53;;;13.34;100.00
63111;BME280;49201;53.426;10.300;2022-09-09T03:58:22;100874.25;;;13.32;100.00
63111;BME280;49201;53.426;10.300;2022-09-09T04:03:19;100883.66;;;13.28;100.00
63111;BME280;49201;53.426;10.300;2022-09-09T04:05:48;100868.22;;;13.28;100.00
63111;BME280;49201;53.426;10.300;2022-09-09T04:08:14;100879.38;;;13.27;100.00
63111;BME280;49201;53.426;10.300;2022-09-09T04:10:39;100870.78;;;13.27;100.00
63111;BME280;49201;53.426;10.300;2022-09-09T04:13:05;100884.47;;;13.24;100.00
63111;BME280;49201;53.426;10.300;2022-09-09T04:15:31;100881.91;;;13.26;100.00
63111;BME280;49201;53.426;10.300;2022-09-09T04:17:57;100879.34;;;13.24;100.00
63111;BME280;49201;53.426;10.300;2022-09-09T04:20:22;100876.78;;;13.26;100.00
63111;BME280;49201;53.426;10.300;2022-09-09T04:22:48;100877.63;;;13.28;100.00
63111;BME280;49201;53.426;10.300;2022-09-09T04:25:13;100886.25;;;13.33;100.00
63111;BME280;49201;53.426;10.300;2022-09-09T04:27:39;100896.59;;;13.36;100.00
63111;BME280;49201;53.426;10.300;2022-09-09T04:30:06;100893.16;;;13.37;100.00
63111;BME280;49201;53.426;10.300;2022-09-09T04:32:33;100901.75;;;13.37;100.00
63111;BME280;49201;53.426;10.300;2022-09-09T04:34:59;100901.75;;;13.37;100.00
63111;BME280;49201;53.426;10.300;2022-09-09T04:37:24;100905.19;;;13.41;100.00
63111;BME280;49201;53.426;10.300;2022-09-09T04:39:50;100899.19;;;13.40;100.00
63111;BME280;49201;53.426;10.300;2022-09-09T04:42:16;100901.81;;;13.45;100.00
63111;BME280;49201;53.426;10.300;2022-09-09T04:44:43;100894.94;;;13.45;100.00
63111;BME280;49201;53.426;10.300;2022-09-09T04:47:09;100898.41;;;13.49;100.00
63111;BME280;49201;53.426;10.300;2022-09-09T04:49:35;100888.97;;;13.51;100.00
63111;BME280;49201;53.426;10.300;2022-09-09T04:52:04;100894.13;;;13.51;100.00
63111;BME280;49201;53.426;10.300;2022-09-09T04:54:32;100899.34;;;13.55;100.00
63111;BME280;49201;53.426;10.300;2022-09-09T04:56:57;100891.63;;;13.58;100.00
63111;BME280;49201;53.426;10.300;2022-09-09T04:59:23;100896.78;;;13.60;100.00
63111;BME280;49201;53.426;10.300;2022-09-09T05:01:53;100891.63;;;13.60;100.00
63111;BME280;49201;53.426;10.300;2022-09-09T05:04:21;100891.66;;;13.63;100.00
63111;BME280;49201;53.426;10.300;2022-09-09T05:06:46;100901.97;;;13.63;100.00
63111;BME280;49201;53.426;10.300;2022-09-09T05:09:12;100905.41;;;13.66;100.00
63111;BME280;49201;53.426;10.300;2022-09-09T05:11:37;100899.38;;;13.66;100.00
63111;BME280;49201;53.426;10.300;2022-09-09T05:14:12;100903.72;;;13.67;100.00
63111;BME280;49201;53.426;10.300;2022-09-09T05:16:38;100901.16;;;13.70;100.00
63111;BME280;49201;53.426;10.300;2022-09-09T05:19:03;100901.19;;;13.73;100.00
63111;BME280;49201;53.426;10.300;2022-09-09T05:21:39;100903.78;;;13.74;100.00
63111;BME280;49201;53.426;10.300;2022-09-09T05:24:06;100909.78;;;13.76;100.00
63111;BME280;49201;53.426;10.300;2022-09-09T05:26:33;100914.09;;;13.80;100.00
63111;BME280;49201;53.426;10.300;2022-09-09T05:28:59;100909.81;;;13.81;100.00
63111;BME280;49201;53.426;10.300;2022-09-09T05:31:26;100908.13;;;13.83;100.00
63111;BME280;49201;53.426;10.300;2022-09-09T05:33:53;100910.72;;;13.86;100.00
63111;BME280;49201;53.426;10.300;2022-09-09T05:36:20;100912.44;;;13.88;100.00
63111;BME280;49201;53.426;10.300;2022-09-09T05:38:50;100910.78;;;13.95;100.00
63111;BME280;49201;53.426;10.300;2022-09-09T05:41:17;100921.97;;;13.98;100.00
63111;BME280;49201;53.426;10.300;2022-09-09T05:43:44;100922.00;;;14.06;100.00
63111;BME280;49201;53.426;10.300;2022-09-09T05:46:13;100919.47;;;14.10;100.00
63111;BME280;49201;53.426;10.300;2022-09-09T05:48:42;100927.19;;;14.13;100.00
63111;BME280;49201;53.426;10.300;2022-09-09T05:51:12;100928.19;;;14.29;100.00
63111;BME280;49201;53.426;10.300;2022-09-09T05:53:41;100935.97;;;14.36;100.00
63111;BME280;49201;53.426;10.300;2022-09-09T05:56:18;100935.09;;;14.33;100.00
63111;BME280;49201;53.426;10.300;2022-09-09T05:58:44;100936.78;;;14.32;100.00
63111;BME280;49201;53.426;10.300;2022-09-09T06:01:24;100933.38;;;14.33;100.00
63111;BME280;49201;53.426;10.300;2022-09-09T06:03:51;100930.81;;;14.36;100.00
63111;BME280;49201;53.426;10.300;2022-09-09T06:06:23;100936.84;;;14.38;100.00
63111;BME280;49201;53.426;10.300;2022-09-09T06:08:52;100935.97;;;14.39;100.00
63111;BME280;49201;53.426;10.300;2022-09-09T06:11:21;100934.28;;;14.38;100.00
63111;BME280;49201;53.426;10.300;2022-09-09T06:13:48;100944.56;;;14.41;100.00
63111;BME280;49201;53.426;10.300;2022-09-09T06:16:18;100947.16;;;14.43;100.00
63111;BME280;49201;53.426;10.300;2022-09-09T06:18:44;100945.47;;;14.43;100.00
63111;BME280;49201;53.426;10.300;2022-09-09T06:21:19;100952.34;;;14.46;100.00
63111;BME280;49201;53.426;10.300;2022-09-09T06:23:47;100951.50;;;14.50;100.00
63111;BME280;49201;53.426;10.300;2022-09-09T06:26:18;100953.22;;;14.51;100.00
63111;BME280;49201;53.426;10.300;2022-09-09T06:28:46;100952.38;;;14.53;100.00
63111;BME280;49201;53.426;10.300;2022-09-09T06:31:14;100950.66;;;14.55;100.00
63111;BME280;49201;53.426;10.300;2022-09-09T06:33:43;100955.84;;;14.63;100.00
63111;BME280;49201;53.426;10.300;2022-09-09T06:36:22;100958.47;;;14.69;100.00
63111;BME280;49201;53.426;10.300;2022-09-09T06:38:48;100956.78;;;14.74;100.00
63111;BME280;49201;53.426;10.300;2022-09-09T06:41:16;100958.50;;;14.78;100.00
63111;BME280;49201;53.426;10.300;2022-09-09T06:43:44;100952.50;;;14.85;100.00
63111;BME280;49201;53.426;10.300;2022-09-09T06:46:18;100949.94;;;14.88;100.00
63111;BME280;49201;53.426;10.300;2022-09-09T06:48:45;100955.97;;;14.97;100.00
63111;BME280;49201;53.426;10.300;2022-09-09T06:51:17;100961.16;;;14.94;100.00
63111;BME280;49201;53.426;10.300;2022-09-09T06:53:45;100956.88;;;15.04;100.00
63111;BME280;49201;53.426;10.300;2022-09-09T06:56:20;100953.50;;;15.21;100.00
63111;BME280;49201;53.426;10.300;2022-09-09T06:58:49;100953.56;;;15.35;100.00
63111;BME280;49201;53.426;10.300;2022-09-09T07:01:27;100952.69;;;15.45;99.26
63111;BME280;49201;53.426;10.300;2022-09-09T07:03:56;100955.31;;;15.55;98.84
63111;BME280;49201;53.426;10.300;2022-09-09T07:07:00;100947.56;;;15.63;98.68
63111;BME280;49201;53.426;10.300;2022-09-09T07:09:22;100948.44;;;15.74;98.42
63111;BME280;49201;53.426;10.300;2022-09-09T07:11:52;100941.53;;;15.91;98.31
63111;BME280;49201;53.426;10.300;2022-09-09T07:14:19;100950.13;;;16.03;98.13
63111;BME280;49201;53.426;10.300;2022-09-09T07:16:48;100949.22;;;16.34;96.81
63111;BME280;49201;53.426;10.300;2022-09-09T07:19:16;100939.56;;;16.89;94.84
63111;BME280;49201;53.426;10.300;2022-09-09T07:21:42;100939.44;;;17.17;94.24
63111;BME280;49201;53.426;10.300;2022-09-09T07:24:10;100948.84;;;17.30;94.28
63111;BME280;49201;53.426;10.300;2022-09-09T07:26:38;100941.00;;;17.47;93.12
63111;BME280;49201;53.426;10.300;2022-09-09T07:29:04;100948.06;;;17.16;92.11
63111;BME280;49201;53.426;10.300;2022-09-09T07:31:33;100948.88;;;17.24;91.91
63111;BME280;49201;53.426;10.300;2022-09-09T07:34:00;100957.63;;;17.05;91.70
63111;BME280;49201;53.426;10.300;2022-09-09T07:36:31;100958.31;;;17.30;90.75
63111;BME280;49201;53.426;10.300;2022-09-09T07:39:03;100958.13;;;17.63;89.16
63111;BME280;49201;53.426;10.300;2022-09-09T07:41:42;100958.81;;;17.86;89.26
63111;BME280;49201;53.426;10.300;2022-09-09T07:44:14;100958.44;;;18.28;88.24
63111;BME280;49201;53.426;10.300;2022-09-09T07:46:41;100961.31;;;17.98;87.79
63111;BME280;49201;53.426;10.300;2022-09-09T07:49:09;100961.53;;;17.71;88.26
63111;BME280;49201;53.426;10.300;2022-09-09T07:51:39;100971.13;;;17.57;89.07
63111;BME280;49201;53.426;10.300;2022-09-09T07:54:07;100966.03;;;17.39;89.54
63111;BME280;49201;53.426;10.300;2022-09-09T07:56:36;100972.09;;;17.36;89.82
63111;BME280;49201;53.426;10.300;2022-09-09T07:59:03;100976.31;;;17.57;89.87
63111;BME280;49201;53.426;10.300;2022-09-09T08:01:38;100978.16;;;17.38;89.17
63111;BME280;49201;53.426;10.300;2022-09-09T08:04:08;100986.00;;;17.22;89.47
63111;BME280;49201;53.426;10.300;2022-09-09T08:06:39;100981.72;;;17.16;90.15
63111;BME280;49201;53.426;10.300;2022-09-09T08:09:08;100985.09;;;17.27;89.76
63111;BME280;49201;53.426;10.300;2022-09-09T08:11:36;100978.06;;;17.52;90.70
63111;BME280;49201;53.426;10.300;2022-09-09T08:14:03;100982.44;;;17.45;89.83
63111;BME280;49201;53.426;10.300;2022-09-09T08:16:32;100983.25;;;17.52;90.61
63111;BME280;49201;53.426;10.300;2022-09-09T08:18:59;100990.19;;;17.45;89.95
63111;BME280;49201;53.426;10.300;2022-09-09T08:21:29;100990.16;;;17.53;89.19
63111;BME280;49201;53.426;10.300;2022-09-09T08:23:59;100988.31;;;17.68;89.78
63111;BME280;49201;53.426;10.300;2022-09-09T08:26:30;100989.19;;;17.70;89.87
63111;BME280;49201;53.426;10.300;2022-09-09T08:28:57;100989.19;;;17.70;89.23
63111;BME280;49201;53.426;10.300;2022-09-09T08:31:30;100989.13;;;17.75;88.90
63111;BME280;49201;53.426;10.300;2022-09-09T08:33:57;100983.94;;;17.78;88.79
63111;BME280;49201;53.426;10.300;2022-09-09T08:36:27;100987.28;;;17.89;88.75
63111;BME280;49201;53.426;10.300;2022-09-09T08:38:54;100989.81;;;17.96;87.27
63111;BME280;49201;53.426;10.300;2022-09-09T08:41:41;100988.13;;;17.94;87.07
63111;BME280;49201;53.426;10.300;2022-09-09T08:52:11;100995.41;;;18.51;84.98
63111;BME280;49201;53.426;10.300;2022-09-09T08:54:39;100984.28;;;18.38;84.96
63111;BME280;49201;53.426;10.300;2022-09-09T08:57:13;101001.44;;;18.53;84.77
63111;BME280;49201;53.426;10.300;2022-09-09T08:59:39;100995.88;;;18.86;84.91
63111;BME280;49201;53.426;10.300;2022-09-09T09:04:45;100999.06;;;19.06;82.73
63111;BME280;49201;53.426;10.300;2022-09-09T09:07:32;100999.81;;;19.17;81.30
63111;BME280;49201;53.426;10.300;2022-09-09T09:10:33;101004.22;;;19.10;79.98
63111;BME280;49201;53.426;10.300;2022-09-09T09:12:57;101008.47;;;19.79;78.43
63111;BME280;49201;53.426;10.300;2022-09-09T09:15:26;101002.53;;;20.70;75.64
63111;BME280;49201;53.426;10.300;2022-09-09T09:17:53;101002.88;;;20.52;74.63
63111;BME280;49201;53.426;10.300;2022-09-09T09:20:49;101008.56;;;21.17;72.92
63111;BME280;49201;53.426;10.300;2022-09-09T09:23:22;100997.56;;;21.81;69.89
63111;BME280;49201;53.426;10.300;2022-09-09T09:25:50;100999.38;;;22.48;69.81
63111;BME280;49201;53.426;10.300;2022-09-09T09:28:23;100985.59;;;25.33;58.61
63111;BME280;49201;53.426;10.300;2022-09-09T09:30:57;100996.28;;;23.80;60.39
63111;BME280;49201;53.426;10.300;2022-09-09T09:33:49;101002.94;;;22.42;66.63
63111;BME280;49201;53.426;10.300;2022-09-09T09:36:17;100991.41;;;24.95;59.92
63111;BME280;49201;53.426;10.300;2022-09-09T09:38:53;100978.69;;;27.88;49.57
63111;BME280;49201;53.426;10.300;2022-09-09T09:41:31;100968.00;;;30.44;43.33
63111;BME280;49201;53.426;10.300;2022-09-09T09:43:58;100974.88;;;29.57;44.51
63111;BME280;49201;53.426;10.300;2022-09-09T09:46:24;100966.72;;;32.39;38.78
63111;BME280;49201;53.426;10.300;2022-09-09T09:49:05;100961.75;;;34.38;35.76
63111;BME280;49201;53.426;10.300;2022-09-09T09:51:34;100979.38;;;29.71;42.59
63111;BME280;49201;53.426;10.300;2022-09-09T09:56:35;100960.19;;;34.12;36.51
63111;BME280;49201;53.426;10.300;2022-09-09T09:59:03;100958.28;;;34.25;35.25
63111;BME280;49201;53.426;10.300;2022-09-09T10:01:35;100972.97;;;29.13;44.09
63111;BME280;49201;53.426;10.300;2022-09-09T10:04:22;100978.50;;;27.00;49.63
63111;BME280;49201;53.426;10.300;2022-09-09T10:06:51;100979.47;;;26.19;50.67
63111;BME280;49201;53.426;10.300;2022-09-09T10:09:28;100985.16;;;26.70;50.77
63111;BME280;49201;53.426;10.300;2022-09-09T10:22:48;100975.25;;;26.36;51.88
63111;BME280;49201;53.426;10.300;2022-09-09T10:25:20;100977.88;;;26.36;51.61
63111;BME280;49201;53.426;10.300;2022-09-09T10:32:57;100979.78;;;25.27;54.15
63111;BME280;49201;53.426;10.300;2022-09-09T10:35:38;100974.94;;;25.15;55.10
63111;BME280;49201;53.426;10.300;2022-09-09T10:39:01;100976.50;;;24.97;55.71
63111;BME280;49201;53.426;10.300;2022-09-09T10:41:22;100979.28;;;24.21;58.14
63111;BME280;49201;53.426;10.300;2022-09-09T10:44:11;100989.75;;;23.95;60.09
63111;BME280;49201;53.426;10.300;2022-09-09T10:52:48;100977.72;;;24.15;60.75
63111;BME280;49201;53.426;10.300;2022-09-09T10:55:16;100977.72;;;23.88;60.97
63111;BME280;49201;53.426;10.300;2022-09-09T10:57:48;100974.81;;;24.23;60.72
63111;BME280;49201;53.426;10.300;2022-09-09T11:00:20;100967.47;;;24.09;59.48
63111;BME280;49201;53.426;10.300;2022-09-09T11:03:05;100966.41;;;24.64;58.88
63111;BME280;49201;53.426;10.300;2022-09-09T11:05:43;100960.56;;;24.31;58.57
63111;BME280;49201;53.426;10.300;2022-09-09T11:08:30;100960.69;;;24.28;57.94
63111;BME280;49201;53.426;10.300;2022-09-09T11:11:05;100958.88;;;25.24;55.09
63111;BME280;49201;53.426;10.300;2022-09-09T11:13:49;100952.22;;;25.15;55.08
63111;BME280;49201;53.426;10.300;2022-09-09T11:16:42;100954.47;;;25.01;56.09
63111;BME280;49201;53.426;10.300;2022-09-09T11:19:17;100949.47;;;24.48;55.27
63111;BME280;49201;53.426;10.300;2022-09-09T11:21:49;100952.63;;;24.82;55.85
63111;BME280;49201;53.426;10.300;2022-09-09T11:24:48;100961.22;;;25.08;56.65
63111;BME280;49201;53.426;10.300;2022-09-09T11:27:53;100971.13;;;25.00;55.37
63111;BME280;49201;53.426;10.300;2022-09-09T11:30:22;100968.69;;;25.19;56.18
63111;BME280;49201;53.426;10.300;2022-09-09T11:40:40;100979.22;;;23.96;60.06
63111;BME280;49201;53.426;10.300;2022-09-09T11:43:21;100985.44;;;23.39;59.86
63111;BME280;49201;53.426;10.300;2022-09-09T11:46:01;100981.38;;;23.29;61.42
63111;BME280;49201;53.426;10.300;2022-09-09T11:48:44;100988.91;;;22.80;64.06
63111;BME280;49201;53.426;10.300;2022-09-09T11:53:49;100980.66;;;21.97;66.44
63111;BME280;49201;53.426;10.300;2022-09-09T11:56:31;100979.78;;;21.96;69.40
63111;BME280;49201;53.426;10.300;2022-09-09T11:59:04;100983.09;;;22.03;69.71
63111;BME280;49201;53.426;10.300;2022-09-09T12:01:40;100988.56;;;21.94;69.80
63111;BME280;49201;53.426;10.300;2022-09-09T12:04:37;100982.97;;;21.74;71.93
63111;BME280;49201;53.426;10.300;2022-09-09T12:07:25;100991.84;;;21.64;72.12
63111;BME280;49201;53.426;10.300;2022-09-09T12:12:45;100994.38;;;21.67;73.56
63111;BME280;49201;53.426;10.300;2022-09-09T12:17:45;100992.38;;;21.79;71.48
63111;BME280;49201;53.426;10.300;2022-09-09T12:28:18;100987.34;;;22.73;67.36
63111;BME280;49201;53.426;10.300;2022-09-09T12:30:49;100985.41;;;22.79;68.80
63111;BME280;49201;53.426;10.300;2022-09-09T12:33:19;100989.81;;;22.79;67.15
63111;BME280;49201;53.426;10.300;2022-09-09T12:35:52;100992.09;;;22.59;67.64
63111;BME280;49201;53.426;10.300;2022-09-09T12:38:29;100992.72;;;22.97;68.49
63111;BME280;49201;53.426;10.300;2022-09-09T12:40:58;101000.34;;;22.74;68.86
63111;BME280;49201;53.426;10.300;2022-09-09T12:43:26;100989.72;;;22.50;68.65
63111;BME280;49201;53.426;10.300;2022-09-09T12:46:03;100983.66;;;23.39;67.86
63111;BME280;49201;53.426;10.300;2022-09-09T12:48:38;100975.69;;;23.44;64.43
63111;BME280;49201;53.426;10.300;2022-09-09T12:51:16;100979.53;;;23.86;60.23
63111;BME280;49201;53.426;10.300;2022-09-09T12:53:42;100975.53;;;24.52;60.80
63111;BME280;49201;53.426;10.300;2022-09-09T12:56:09;100971.66;;;24.38;59.60
63111;BME280;49201;53.426;10.300;2022-09-09T12:58:45;100973.56;;;23.82;61.79
63111;BME280;49201;53.426;10.300;2022-09-09T13:01:22;100985.94;;;23.77;65.11
63111;BME280;49201;53.426;10.300;2022-09-09T13:03:47;100973.19;;;23.10;64.60
63111;BME280;49201;53.426;10.300;2022-09-09T13:06:20;100974.91;;;22.82;64.78
63111;BME280;49201;53.426;10.300;2022-09-09T13:08:46;100978.97;;;22.62;64.63
63111;BME280;49201;53.426;10.300;2022-09-09T13:11:16;100975.75;;;22.52;64.45
63111;BME280;49201;53.426;10.300;2022-09-09T13:13:50;100981.22;;;22.42;63.27
63111;BME280;49201;53.426;10.300;2022-09-09T13:16:27;100975.84;;;22.49;62.38
63111;BME280;49201;53.426;10.300;2022-09-09T13:18:58;100983.53;;;22.54;62.10
63111;BME280;49201;53.426;10.300;2022-09-09T13:21:34;100992.84;;;22.64;63.59
63111;BME280;49201;53.426;10.300;2022-09-09T13:24:01;100998.44;;;22.15;63.95
63111;BME280;49201;53.426;10.300;2022-09-09T13:26:28;101004.47;;;22.18;66.63
63111;BME280;49201;53.426;10.300;2022-09-09T13:29:09;101025.25;;;21.86;66.56
63111;BME280;49201;53.426;10.300;2022-09-09T13:31:39;101021.94;;;21.40;69.97
63111;BME280;49201;53.426;10.300;2022-09-09T13:34:35;101026.56;;;21.28;70.41
63111;BME280;49201;53.426;10.300;2022-09-09T13:37:19;101028.53;;;21.17;70.53
63111;BME280;49201;53.426;10.300;2022-09-09T13:39:51;101032.97;;;21.12;71.67
63111;BME280;49201;53.426;10.300;2022-09-09T13:42:28;101027.50;;;20.80;71.72
63111;BME280;49201;53.426;10.300;2022-09-09T13:44:58;101030.03;;;20.84;72.50
63111;BME280;49201;53.426;10.300;2022-09-09T13:47:34;101032.81;;;20.75;73.65
63111;BME280;49201;53.426;10.300;2022-09-09T13:50:20;101036.22;;;20.79;74.14
63111;BME280;49201;53.426;10.300;2022-09-09T13:52:47;101033.03;;;20.63;74.59
63111;BME280;49201;53.426;10.300;2022-09-09T13:55:14;101043.69;;;20.51;75.33
63111;BME280;49201;53.426;10.300;2022-09-09T13:58:14;101036.69;;;20.53;75.93
63111;BME280;49201;53.426;10.300;2022-09-09T14:00:38;101040.41;;;20.40;76.30
63111;BME280;49201;53.426;10.300;2022-09-09T14:03:03;101036.28;;;20.27;77.80
63111;BME280;49201;53.426;10.300;2022-09-09T14:05:31;101026.19;;;20.09;79.56
63111;BME280;49201;53.426;10.300;2022-09-09T14:07:57;101029.13;;;19.87;81.64
63111;BME280;49201;53.426;10.300;2022-09-09T14:10:23;101018.91;;;19.75;83.00
63111;BME280;49201;53.426;10.300;2022-09-09T14:12:48;101019.09;;;19.64;83.99
63111;BME280;49201;53.426;10.300;2022-09-09T14:15:14;101020.34;;;19.36;85.23
63111;BME280;49201;53.426;10.300;2022-09-09T14:17:40;101025.72;;;19.23;86.27
63111;BME280;49201;53.426;10.300;2022-09-09T14:20:07;101031.09;;;19.05;88.21
63111;BME280;49201;53.426;10.300;2022-09-09T14:22:35;101025.66;;;18.52;85.57
63111;BME280;49201;53.426;10.300;2022-09-09T14:25:02;101026.75;;;18.22;83.71
63111;BME280;49201;53.426;10.300;2022-09-09T14:27:28;101013.97;;;18.01;82.69
63111;BME280;49201;53.426;10.300;2022-09-09T14:29:53;101011.28;;;18.12;82.15
63111;BME280;49201;53.426;10.300;2022-09-09T14:32:19;101008.63;;;18.18;82.03
63111;BME280;49201;53.426;10.300;2022-09-09T14:34:46;100999.97;;;18.22;82.86